createdAt,value
2023-04-13T00:01:51.259Z,2.8
2023-04-13T00:04:53.183Z,2.2
2023-04-13T00:07:55.081Z,2.1
2023-04-13T00:10:57.142Z,1.8
2023-04-13T00:13:59.453Z,1.6
2023-04-13T00:17:01.046Z,1.4
2023-04-13T00:20:02.954Z,1.3
2023-04-13T00:23:04.911Z,1.4
2023-04-13T00:26:06.921Z,1.7
2023-04-13T00:29:08.928Z,2.1
2023-04-13T00:32:10.902Z,1.5
2023-04-13T00:35:12.830Z,2.1
2023-04-13T00:38:14.790Z,1.1
2023-04-13T00:41:16.836Z,1
2023-04-13T00:44:18.777Z,2.7
2023-04-13T00:47:20.717Z,1.2
2023-04-13T00:50:22.658Z,1.1
2023-04-13T00:53:24.622Z,2
2023-04-13T00:56:26.574Z,1.8
2023-04-13T00:59:28.496Z,2
2023-04-13T01:02:30.531Z,1.6
2023-04-13T01:05:32.449Z,2.6
2023-04-13T01:08:34.411Z,2.3
2023-04-13T01:11:36.403Z,4.9
2023-04-13T01:14:38.366Z,2.1
2023-04-13T01:17:40.379Z,2.2
2023-04-13T01:20:42.389Z,2.2
2023-04-13T01:23:44.242Z,2.3
2023-04-13T01:26:46.278Z,1.1
2023-04-13T01:29:48.228Z,1.2
2023-04-13T01:32:50.260Z,1.4
2023-04-13T01:35:52.176Z,1.9
2023-04-13T01:38:54.169Z,1
2023-04-13T01:41:56.115Z,1.5
2023-04-13T01:44:58.106Z,1.8
2023-04-13T01:48:00.111Z,2.3
2023-04-13T01:51:02.115Z,1.8
2023-04-13T01:54:06.788Z,1.3
2023-04-13T01:57:08.730Z,4
2023-04-13T02:00:10.701Z,1.5
2023-04-13T02:03:12.758Z,3.3
2023-04-13T02:06:14.615Z,2.6
2023-04-13T02:09:16.624Z,2.3
2023-04-13T02:12:18.733Z,2
2023-04-13T02:15:20.740Z,2.2
2023-04-13T02:18:22.699Z,1.7
2023-04-13T02:21:24.704Z,2.3
2023-04-13T02:24:26.659Z,4.6
2023-04-13T02:27:28.603Z,2.3
2023-04-13T02:30:30.578Z,5.1
2023-04-13T02:33:32.536Z,2.2
2023-04-13T02:36:34.584Z,5.5
2023-04-13T02:39:36.474Z,1.6
2023-04-13T02:42:38.451Z,3.3
2023-04-13T02:45:40.404Z,3.1
2023-04-13T02:48:42.404Z,2.9
2023-04-13T02:51:44.307Z,5.3
2023-04-13T02:54:46.271Z,0.9
2023-04-13T02:57:48.277Z,4.2
2023-04-13T03:00:50.307Z,5.9
2023-04-13T03:03:52.151Z,2.4
2023-04-13T03:06:54.143Z,3.6
2023-04-13T03:09:56.151Z,4.5
2023-04-13T03:12:58.164Z,3.7
2023-04-13T03:16:00.126Z,2.5
2023-04-13T03:19:02.111Z,4.8
2023-04-13T03:22:04.025Z,2.6
2023-04-13T03:25:06.003Z,2.3
2023-04-13T03:28:08.004Z,1.5
2023-04-13T03:31:09.923Z,3.8
2023-04-13T03:34:11.861Z,3.7
2023-04-13T03:37:13.870Z,8
2023-04-13T03:40:15.783Z,3.1
2023-04-13T03:43:17.763Z,2.9
2023-04-13T03:46:19.788Z,2
2023-04-13T03:49:21.735Z,6.6
2023-04-13T03:52:23.661Z,2.7
2023-04-13T03:55:25.639Z,2.5
2023-04-13T03:58:27.595Z,4.2
2023-04-13T04:01:29.516Z,4.3
2023-04-13T04:04:31.602Z,6.6
2023-04-13T04:07:33.652Z,4.9
2023-04-13T04:10:35.509Z,3
2023-04-13T04:13:37.500Z,3.2
2023-04-13T04:16:39.470Z,5.2
2023-04-13T04:19:41.411Z,2.9
2023-04-13T04:22:43.350Z,3.1
2023-04-13T04:25:45.309Z,2.5
2023-04-13T04:28:47.261Z,2.6
2023-04-13T04:31:49.256Z,3.6
2023-04-13T04:34:51.263Z,3.2
2023-04-13T04:37:53.266Z,2.7
2023-04-13T04:40:55.205Z,3.6
2023-04-13T04:43:57.516Z,3
2023-04-13T04:46:59.163Z,4.2
2023-04-13T04:50:01.150Z,5.8
2023-04-13T04:53:03.099Z,5.5
2023-04-13T04:56:05.042Z,4.8
2023-04-13T04:59:07.011Z,5.6
2023-04-13T05:02:09.031Z,7.1
2023-04-13T05:05:10.958Z,4.3
2023-04-13T05:08:12.917Z,3
2023-04-13T05:11:14.859Z,4.5
2023-04-13T05:14:16.826Z,3.7
2023-04-13T05:17:18.858Z,3.9
2023-04-13T05:20:20.793Z,4.3
2023-04-13T05:23:22.970Z,3.6
2023-04-13T05:26:24.751Z,4.4
2023-04-13T05:29:26.706Z,3.8
2023-04-13T05:32:28.665Z,2.6
2023-04-13T05:35:30.610Z,3.5
2023-04-13T05:38:32.584Z,3.7
2023-04-13T05:41:34.528Z,6.1
2023-04-13T05:44:36.472Z,4
2023-04-13T05:47:38.520Z,5.9
2023-04-13T05:50:40.407Z,5.7
2023-04-13T05:53:42.494Z,5.3
2023-04-13T05:56:44.342Z,4.9
2023-04-13T05:59:46.324Z,5
2023-04-13T06:02:48.327Z,4.6
2023-04-13T06:05:50.219Z,7.3
2023-04-13T06:08:52.176Z,5.6
2023-04-13T06:11:54.150Z,5
2023-04-13T06:14:56.162Z,5.4
2023-04-13T06:17:58.105Z,7.1
2023-04-13T06:21:00.062Z,6.7
2023-04-13T06:24:02.054Z,5.4
2023-04-13T06:27:04.022Z,6.5
2023-04-13T06:30:06.002Z,4.5
2023-04-13T06:33:07.906Z,3.6
2023-04-13T06:36:09.882Z,9.3
2023-04-13T06:39:11.846Z,5.3
2023-04-13T06:42:13.798Z,5.7
2023-04-13T06:45:15.780Z,5.3
2023-04-13T06:48:17.771Z,8.3
2023-04-13T06:51:19.738Z,9.1
2023-04-13T06:54:21.741Z,6.5
2023-04-13T06:57:24.886Z,5.9
2023-04-13T07:00:29.896Z,5
2023-04-13T07:03:27.743Z,7.1
2023-04-13T07:06:29.651Z,7.3
2023-04-13T07:09:31.660Z,5.2
2023-04-13T07:12:33.622Z,6.6
2023-04-13T07:15:35.570Z,4.5
2023-04-13T07:18:37.558Z,4.5
2023-04-13T07:21:39.510Z,5
2023-04-13T07:24:41.461Z,8.6
2023-04-13T07:27:43.410Z,9.6
2023-04-13T07:30:45.375Z,5.5
2023-04-13T07:33:47.402Z,9
2023-04-13T07:36:49.386Z,9.4
2023-04-13T07:39:51.356Z,7.5
2023-04-13T07:42:53.400Z,10.8
2023-04-13T07:45:55.342Z,5.3
2023-04-13T07:48:57.337Z,6.3
2023-04-13T07:51:59.229Z,7.3
2023-04-13T07:55:01.174Z,8.8
2023-04-13T07:58:03.151Z,6.5
2023-04-13T08:01:05.108Z,5.8
2023-04-13T08:04:07.227Z,4.6
2023-04-13T08:07:09.030Z,5.4
2023-04-13T08:10:10.959Z,8.4
2023-04-13T08:13:12.992Z,4.6
2023-04-13T08:16:14.995Z,5.4
2023-04-13T08:19:16.933Z,5.2
2023-04-13T08:22:18.952Z,5
2023-04-13T08:25:20.916Z,8
2023-04-13T08:28:22.860Z,5.6
2023-04-13T08:31:24.905Z,3.7
2023-04-13T08:34:26.895Z,6.1
2023-04-13T08:37:28.848Z,6.9
2023-04-13T08:40:30.862Z,3.8
2023-04-13T08:43:32.798Z,9.9
2023-04-13T08:46:34.787Z,5
2023-04-13T08:49:36.772Z,5.7
2023-04-13T08:52:38.669Z,6.4
2023-04-13T08:55:40.649Z,5.5
2023-04-13T08:58:42.588Z,6
2023-04-13T09:01:44.844Z,4.3
2023-04-13T09:04:46.895Z,4.5
2023-04-13T09:07:48.683Z,8.3
2023-04-13T09:10:50.662Z,3.8
2023-04-13T09:13:52.566Z,4.2
2023-04-13T09:16:54.596Z,3.5
2023-04-13T09:19:56.531Z,5.6
2023-04-13T09:22:58.483Z,6.9
2023-04-13T09:26:00.425Z,2.5
2023-04-13T09:29:02.476Z,4
2023-04-13T09:32:04.363Z,4
2023-04-13T09:35:06.372Z,2.6
2023-04-13T09:38:08.296Z,3.7
2023-04-13T09:41:10.240Z,6.1
2023-04-13T09:44:12.226Z,2.2
2023-04-13T09:47:14.161Z,4.1
2023-04-13T09:50:16.136Z,4.1
2023-04-13T09:53:18.104Z,4.1
2023-04-13T09:56:20.042Z,2.4
2023-04-13T09:59:22.043Z,3
2023-04-13T10:02:24.291Z,2.2
2023-04-13T10:05:28.359Z,2.5
2023-04-13T10:08:37.130Z,5.1
2023-04-13T10:11:29.941Z,3.2
2023-04-13T10:14:31.906Z,2.4
2023-04-13T10:17:33.961Z,4.3
2023-04-13T10:20:35.815Z,2.5
2023-04-13T10:23:37.822Z,4.2
2023-04-13T10:26:39.794Z,2.8
2023-04-13T10:29:41.722Z,5.8
2023-04-13T10:32:43.711Z,2.5
2023-04-13T10:35:45.662Z,2.9
2023-04-13T10:38:47.673Z,2.8
2023-04-13T10:41:49.613Z,3.5
2023-04-13T10:44:51.663Z,2
2023-04-13T10:47:53.623Z,3
2023-04-13T10:50:55.549Z,3.2
2023-04-13T10:53:57.561Z,1.9
2023-04-13T10:56:59.539Z,2.1
2023-04-13T11:00:01.578Z,4
2023-04-13T11:03:03.679Z,1.6
2023-04-13T11:06:05.492Z,2.7
2023-04-13T11:09:08.322Z,3.1
2023-04-13T11:12:09.630Z,2
2023-04-13T11:15:11.649Z,2.4
2023-04-13T11:18:13.659Z,2.9
2023-04-13T11:21:15.578Z,2.9
2023-04-13T11:24:17.603Z,2.3
2023-04-13T11:27:19.599Z,2.7
2023-04-13T11:30:21.555Z,4.2
2023-04-13T11:33:23.574Z,2.3
2023-04-13T11:36:25.564Z,2
2023-04-13T11:39:27.571Z,3.3
2023-04-13T11:42:29.774Z,3
2023-04-13T11:45:31.711Z,2.8
2023-04-13T11:48:33.685Z,3.7
2023-04-13T11:51:35.660Z,2.1
2023-04-13T11:54:37.692Z,2.3
2023-04-13T11:57:39.658Z,1.9
2023-04-13T12:00:41.711Z,1.6
2023-04-13T12:06:46.337Z,1.6
2023-04-13T12:12:51.626Z,2.3
2023-04-13T12:18:54.812Z,1.7
2023-04-13T12:21:56.307Z,0.9
2023-04-13T12:24:58.599Z,1.9
2023-04-13T12:27:59.674Z,2
2023-04-13T12:31:03.665Z,2.5
2023-04-13T12:34:03.589Z,2.2
2023-04-13T12:37:06.148Z,1.5
2023-04-13T12:40:08.184Z,3.1
2023-04-13T12:43:10.111Z,2.4
2023-04-13T12:46:12.090Z,3.1
2023-04-13T12:49:14.062Z,2.6
2023-04-13T12:52:16.003Z,2.8
2023-04-13T12:55:17.996Z,2.6
2023-04-13T12:58:19.972Z,2.2
2023-04-13T13:01:21.973Z,1.3
2023-04-13T13:04:23.998Z,2.9
2023-04-13T13:07:25.949Z,2.5
2023-04-13T13:10:29.851Z,2.6
2023-04-13T13:13:29.979Z,0.5
2023-04-13T13:16:32.053Z,0.9
2023-04-13T13:19:34.166Z,0.7
2023-04-13T13:22:36.086Z,2.8
2023-04-13T13:25:40.385Z,0.7
2023-04-13T13:28:40.074Z,2.2
2023-04-13T13:31:42.155Z,1.2
2023-04-13T13:34:44.049Z,2.2
2023-04-13T13:37:46.023Z,0.9
2023-04-13T13:40:47.982Z,0.6
2023-04-13T13:43:50.001Z,0.7
2023-04-13T13:46:51.935Z,0.6
2023-04-13T13:49:53.899Z,1
2023-04-13T13:53:03.591Z,0.5
2023-04-13T13:55:57.967Z,0.8
2023-04-13T13:58:59.999Z,0.9
2023-04-13T14:02:01.965Z,2
2023-04-13T14:05:04.069Z,0.9
2023-04-13T14:08:06.249Z,0.7
2023-04-13T14:11:08.102Z,1.4
2023-04-13T14:14:18.654Z,0.9
2023-04-13T14:17:12.042Z,0.6
2023-04-13T14:20:14.007Z,0.7
2023-04-13T14:23:16.092Z,0.8
2023-04-13T14:26:17.993Z,2.5
2023-04-13T14:29:20.001Z,1.2
2023-04-13T14:32:21.906Z,2.7
2023-04-13T14:35:23.871Z,1
2023-04-13T14:38:25.865Z,2.3
2023-04-13T14:41:27.804Z,2.8
2023-04-13T14:44:29.760Z,1.6
2023-04-13T14:47:31.774Z,1
2023-04-13T14:50:33.810Z,2.4
2023-04-13T14:53:35.754Z,2.9
2023-04-13T14:56:37.742Z,3.2
2023-04-13T14:59:39.668Z,1.9
2023-04-13T15:02:41.746Z,1.7
2023-04-13T15:05:43.700Z,2.9
2023-04-13T15:08:45.681Z,2
2023-04-13T15:11:47.647Z,3.7
2023-04-13T15:14:49.728Z,1.7
2023-04-13T15:17:51.748Z,2.4
2023-04-13T15:20:53.736Z,3.5
2023-04-13T15:23:55.701Z,2.2
2023-04-13T15:26:57.752Z,3.5
2023-04-13T15:29:59.715Z,1.3
2023-04-13T15:33:01.794Z,2.9
2023-04-13T15:36:03.615Z,3
2023-04-13T15:39:05.644Z,1.7
2023-04-13T15:42:07.560Z,6.3
2023-04-13T15:45:09.563Z,1.1
2023-04-13T15:48:11.513Z,2.8
2023-04-13T15:51:13.490Z,1.7
2023-04-13T15:54:15.489Z,2.9
2023-04-13T15:57:17.400Z,4
2023-04-13T16:00:19.461Z,4.2
2023-04-13T16:03:21.685Z,2.1
2023-04-13T16:06:23.431Z,7
2023-04-13T16:09:25.377Z,6
2023-04-13T16:12:27.371Z,4.3
2023-04-13T16:15:29.347Z,4.3
2023-04-13T16:18:31.296Z,4.1
2023-04-13T16:21:33.351Z,5.3
2023-04-13T16:24:35.439Z,2.7
2023-04-13T16:27:37.424Z,3.5
2023-04-13T16:30:39.401Z,3.4
2023-04-13T16:33:41.360Z,2.2
2023-04-13T16:36:43.386Z,3.4
2023-04-13T16:39:45.276Z,2.8
2023-04-13T16:42:47.251Z,3.1
2023-04-13T16:45:49.222Z,2.6
2023-04-13T16:48:51.243Z,3
2023-04-13T16:51:53.240Z,3.3
2023-04-13T16:54:55.185Z,2.8
2023-04-13T16:58:00.179Z,3.5
2023-04-13T17:01:02.105Z,2.2
2023-04-13T17:04:04.234Z,2.9
2023-04-13T17:07:06.078Z,2
2023-04-13T17:10:08.010Z,3
2023-04-13T17:13:10.044Z,3.1
2023-04-13T17:16:12.003Z,2.1
2023-04-13T17:19:14.012Z,2.8
2023-04-13T17:22:16.014Z,3
2023-04-13T17:25:18.065Z,1.5
2023-04-13T17:28:20.088Z,3.2
2023-04-13T17:31:22.165Z,3.1
2023-04-13T17:34:24.107Z,1.8
2023-04-13T17:37:26.107Z,2.5
2023-04-13T17:40:28.125Z,2.1
2023-04-13T17:43:30.222Z,2.4
2023-04-13T17:46:32.535Z,1.9
2023-04-13T17:49:34.202Z,4.7
2023-04-13T17:52:36.162Z,3.2
2023-04-13T17:55:38.169Z,2
2023-04-13T17:58:40.140Z,2
2023-04-13T18:01:42.243Z,3
2023-04-13T18:04:44.049Z,1.9
2023-04-13T18:07:46.001Z,2.8
2023-04-13T18:10:48.139Z,3
2023-04-13T18:13:50.106Z,2.4
2023-04-13T18:16:52.234Z,5
2023-04-13T18:19:54.044Z,3.8
2023-04-13T18:22:55.955Z,2.8
2023-04-13T18:25:57.959Z,3
2023-04-13T18:28:59.935Z,7.2
2023-04-13T18:32:01.947Z,2.8
2023-04-13T18:35:03.923Z,2.7
2023-04-13T18:38:06.031Z,2.4
2023-04-13T18:41:07.965Z,4.9
2023-04-13T18:44:10.001Z,4.5
2023-04-13T18:47:11.929Z,3.1
2023-04-13T18:50:13.870Z,3
2023-04-13T18:53:15.865Z,3.8
2023-04-13T18:56:17.868Z,3.5
2023-04-13T18:59:19.838Z,4.8
2023-04-13T19:02:21.844Z,4.4
2023-04-13T19:05:23.723Z,5.9
2023-04-13T19:08:25.697Z,6.4
2023-04-13T19:11:27.843Z,4.5
2023-04-13T19:14:29.637Z,5.8
2023-04-13T19:17:31.607Z,8.7
2023-04-13T19:20:33.550Z,5.1
2023-04-13T19:23:37.116Z,6.2
2023-04-13T19:26:37.524Z,4.1
2023-04-13T19:29:39.524Z,5
2023-04-13T19:32:41.494Z,3.2
2023-04-13T19:35:43.473Z,5.1
2023-04-13T19:38:45.482Z,3.6
2023-04-13T19:41:47.312Z,3.3
2023-04-13T19:44:49.265Z,4
2023-04-13T19:47:51.260Z,6.1
2023-04-13T19:50:53.170Z,5.4
2023-04-13T19:53:55.125Z,4.5
2023-04-13T19:56:57.133Z,7.2
2023-04-13T19:59:59.062Z,6.6
2023-04-13T20:03:25.226Z,5.8
2023-04-13T20:06:07.055Z,5.4
2023-04-13T20:09:09.039Z,6.4
2023-04-13T20:12:10.980Z,6.3
2023-04-13T20:15:15.993Z,6.5
2023-04-13T20:18:17.949Z,7.6
2023-04-13T20:21:19.978Z,6.5
2023-04-13T20:24:21.935Z,5.3
2023-04-13T20:27:23.907Z,5.3
2023-04-13T20:30:25.844Z,6.5
2023-04-13T20:33:27.816Z,6.5
2023-04-13T20:36:29.801Z,7.2
2023-04-13T20:39:31.774Z,6.7
2023-04-13T20:42:33.696Z,5.7
2023-04-13T20:45:35.650Z,7.4
2023-04-13T20:51:39.649Z,8.4
2023-04-13T20:54:41.666Z,6.8
2023-04-13T20:57:43.871Z,10.2
2023-04-13T21:00:45.647Z,7.2
2023-04-13T21:03:47.630Z,8.1
2023-04-13T21:06:49.494Z,8
2023-04-13T21:09:51.454Z,8.4
2023-04-13T21:12:53.487Z,8.5
2023-04-13T21:15:58.555Z,8
2023-04-13T21:19:00.467Z,9.2
2023-04-13T21:22:02.720Z,9.8
2023-04-13T21:25:04.607Z,8.3
2023-04-13T21:28:06.447Z,10.1
2023-04-13T21:31:08.421Z,8.1
2023-04-13T21:34:10.375Z,9.3
2023-04-13T21:37:12.320Z,10.9
2023-04-13T21:40:14.261Z,9.7
2023-04-13T21:43:16.215Z,10.7
2023-04-13T21:46:18.195Z,9.1
2023-04-13T21:49:20.158Z,10.1
2023-04-13T21:52:22.199Z,9.5
2023-04-13T21:55:24.112Z,8.9
2023-04-13T21:58:26.065Z,9.3
2023-04-13T22:01:28.088Z,7
2023-04-13T22:04:30.092Z,11
2023-04-13T22:07:42.093Z,8.5
2023-04-13T22:10:33.964Z,12
2023-04-13T22:13:35.932Z,12.1
2023-04-13T22:16:37.929Z,9.5
2023-04-13T22:19:40.038Z,10.8
2023-04-13T22:22:41.831Z,9.2
2023-04-13T22:25:44.050Z,10.8
2023-04-13T22:28:45.794Z,8.3
2023-04-13T22:31:47.913Z,11.4
2023-04-13T22:34:49.729Z,10.7
2023-04-13T22:37:51.624Z,10.9
2023-04-13T22:40:53.578Z,10.6
2023-04-13T22:43:55.543Z,12
2023-04-13T22:46:57.693Z,10.4
2023-04-13T22:49:59.514Z,12.3
2023-04-13T22:53:01.651Z,10.1
2023-04-13T22:56:03.589Z,9.9
2023-04-13T22:59:05.607Z,11.3
2023-04-13T23:02:07.762Z,11.8
2023-04-13T23:05:09.651Z,8.1
2023-04-13T23:08:11.419Z,11
2023-04-13T23:11:13.387Z,11.9
2023-04-13T23:14:15.562Z,11
2023-04-13T23:17:17.382Z,12.1
2023-04-13T23:20:19.298Z,9.2
2023-04-13T23:23:21.505Z,12.4
2023-04-13T23:26:23.439Z,9.9
2023-04-13T23:29:25.447Z,10
2023-04-13T23:32:27.608Z,12.1
2023-04-13T23:35:29.498Z,12.4
2023-04-13T23:38:31.477Z,9.5
2023-04-13T23:41:33.469Z,10.7
2023-04-13T23:44:35.430Z,14
2023-04-13T23:47:37.454Z,9
2023-04-13T23:50:39.363Z,11.7
2023-04-13T23:53:41.336Z,9.4
2023-04-13T23:56:43.293Z,14.3
2023-04-13T23:59:45.238Z,9.4
